sensor_id;sensor_type;location;lat;lon;timestamp;temperature;humidity
1277;DHT22;631;51.024;13.826;2023-08-06T00:00:21;16.00;99.90
1277;DHT22;631;51.024;13.826;2023-08-06T00:02:48;16.00;99.90
1277;DHT22;631;51.024;13.826;2023-08-06T00:05:13;16.00;99.90
1277;DHT22;631;51.024;13.826;2023-08-06T00:07:46;16.00;99.90
1277;DHT22;631;51.024;13.826;2023-08-06T00:10:12;16.00;99.90
1277;DHT22;631;51.024;13.826;2023-08-06T00:12:37;16.10;99.90
1277;DHT22;631;51.024;13.826;2023-08-06T00:15:03;16.00;99.90
1277;DHT22;631;51.024;13.826;2023-08-06T00:17:29;16.00;99.90
1277;DHT22;631;51.024;13.826;2023-08-06T00:19:55;16.00;99.90
1277;DHT22;631;51.024;13.826;2023-08-06T00:22:20;16.00;99.90
1277;DHT22;631;51.024;13.826;2023-08-06T00:24:46;16.00;99.90
1277;DHT22;631;51.024;13.826;2023-08-06T00:27:11;16.00;99.90
1277;DHT22;631;51.024;13.826;2023-08-06T00:29:37;16.00;99.90
1277;DHT22;631;51.024;13.826;2023-08-06T00:32:02;16.00;99.90
1277;DHT22;631;51.024;13.826;2023-08-06T00:34:28;16.00;99.90
1277;DHT22;631;51.024;13.826;2023-08-06T00:36:54;16.00;99.90
1277;DHT22;631;51.024;13.826;2023-08-06T00:39:19;15.90;99.90
1277;DHT22;631;51.024;13.826;2023-08-06T00:41:45;15.90;99.90
1277;DHT22;631;51.024;13.826;2023-08-06T00:44:11;15.90;99.90
1277;DHT22;631;51.024;13.826;2023-08-06T00:46:36;15.80;99.90
1277;DHT22;631;51.024;13.826;2023-08-06T00:49:02;15.80;99.90
1277;DHT22;631;51.024;13.826;2023-08-06T00:51:28;15.80;99.90
1277;DHT22;631;51.024;13.826;2023-08-06T00:53:54;15.80;99.90
1277;DHT22;631;51.024;13.826;2023-08-06T00:56:21;15.80;99.90
1277;DHT22;631;51.024;13.826;2023-08-06T00:58:47;15.80;99.90
1277;DHT22;631;51.024;13.826;2023-08-06T01:01:12;15.80;99.90
1277;DHT22;631;51.024;13.826;2023-08-06T01:03:38;15.90;99.90
1277;DHT22;631;51.024;13.826;2023-08-06T01:06:04;15.90;99.90
1277;DHT22;631;51.024;13.826;2023-08-06T01:08:56;15.90;99.90
1277;DHT22;631;51.024;13.826;2023-08-06T01:11:39;15.90;99.90
1277;DHT22;631;51.024;13.826;2023-08-06T01:16:37;15.90;99.90
1277;DHT22;631;51.024;13.826;2023-08-06T01:19:05;15.90;99.90
1277;DHT22;631;51.024;13.826;2023-08-06T01:21:40;15.90;99.90
1277;DHT22;631;51.024;13.826;2023-08-06T01:24:06;15.90;99.90
1277;DHT22;631;51.024;13.826;2023-08-06T01:26:42;15.90;99.90
1277;DHT22;631;51.024;13.826;2023-08-06T01:29:18;15.90;99.90
1277;DHT22;631;51.024;13.826;2023-08-06T01:31:48;15.80;99.90
1277;DHT22;631;51.024;13.826;2023-08-06T01:34:21;15.80;99.90
1277;DHT22;631;51.024;13.826;2023-08-06T01:36:48;15.80;99.90
1277;DHT22;631;51.024;13.826;2023-08-06T01:39:14;15.80;99.90
1277;DHT22;631;51.024;13.826;2023-08-06T01:41:39;15.80;99.90
1277;DHT22;631;51.024;13.826;2023-08-06T01:44:05;15.80;99.90
1277;DHT22;631;51.024;13.826;2023-08-06T01:46:30;15.80;99.90
1277;DHT22;631;51.024;13.826;2023-08-06T01:48:56;15.80;99.90
1277;DHT22;631;51.024;13.826;2023-08-06T01:51:22;15.80;99.90
1277;DHT22;631;51.024;13.826;2023-08-06T01:53:47;15.70;99.90
1277;DHT22;631;51.024;13.826;2023-08-06T01:56:13;15.70;99.90
1277;DHT22;631;51.024;13.826;2023-08-06T01:58:38;15.60;99.90
1277;DHT22;631;51.024;13.826;2023-08-06T02:01:05;15.60;99.90
1277;DHT22;631;51.024;13.826;2023-08-06T02:03:30;15.60;99.90
1277;DHT22;631;51.024;13.826;2023-08-06T02:05:56;15.60;99.90
1277;DHT22;631;51.024;13.826;2023-08-06T02:08:21;15.50;99.90
1277;DHT22;631;51.024;13.826;2023-08-06T02:10:47;15.50;99.90
1277;DHT22;631;51.024;13.826;2023-08-06T02:13:13;15.50;99.90
1277;DHT22;631;51.024;13.826;2023-08-06T02:15:45;15.50;99.90
1277;DHT22;631;51.024;13.826;2023-08-06T02:18:13;15.60;99.90
1277;DHT22;631;51.024;13.826;2023-08-06T02:20:40;15.60;99.90
1277;DHT22;631;51.024;13.826;2023-08-06T02:23:05;15.60;99.90
1277;DHT22;631;51.024;13.826;2023-08-06T02:25:31;15.60;99.90
1277;DHT22;631;51.024;13.826;2023-08-06T02:27:57;15.70;99.90
1277;DHT22;631;51.024;13.826;2023-08-06T02:30:22;15.70;99.90
1277;DHT22;631;51.024;13.826;2023-08-06T02:32:48;15.80;99.90
1277;DHT22;631;51.024;13.826;2023-08-06T02:35:13;15.80;99.90
1277;DHT22;631;51.024;13.826;2023-08-06T02:37:39;15.80;99.90
1277;DHT22;631;51.024;13.826;2023-08-06T02:40:05;15.80;99.90
1277;DHT22;631;51.024;13.826;2023-08-06T02:42:30;15.80;99.90
1277;DHT22;631;51.024;13.826;2023-08-06T02:44:56;15.80;99.90
1277;DHT22;631;51.024;13.826;2023-08-06T02:47:22;15.90;99.90
1277;DHT22;631;51.024;13.826;2023-08-06T02:49:47;15.90;99.90
1277;DHT22;631;51.024;13.826;2023-08-06T02:52:13;15.90;99.90
1277;DHT22;631;51.024;13.826;2023-08-06T02:54:39;15.90;99.90
1277;DHT22;631;51.024;13.826;2023-08-06T02:57:05;15.90;99.90
1277;DHT22;631;51.024;13.826;2023-08-06T02:59:31;15.90;99.90
1277;DHT22;631;51.024;13.826;2023-08-06T03:01:57;15.90;99.90
1277;DHT22;631;51.024;13.826;2023-08-06T03:04:22;15.90;99.90
1277;DHT22;631;51.024;13.826;2023-08-06T03:06:51;15.90;99.90
1277;DHT22;631;51.024;13.826;2023-08-06T03:09:17;15.90;99.90
1277;DHT22;631;51.024;13.826;2023-08-06T03:11:43;15.90;99.90
1277;DHT22;631;51.024;13.826;2023-08-06T03:14:09;15.90;99.90
1277;DHT22;631;51.024;13.826;2023-08-06T03:16:35;16.00;99.90
1277;DHT22;631;51.024;13.826;2023-08-06T03:19:00;16.00;99.90
1277;DHT22;631;51.024;13.826;2023-08-06T03:21:26;16.00;99.90
1277;DHT22;631;51.024;13.826;2023-08-06T03:23:52;16.00;99.90
1277;DHT22;631;51.024;13.826;2023-08-06T03:26:17;16.00;99.90
1277;DHT22;631;51.024;13.826;2023-08-06T03:28:43;16.00;99.90
1277;DHT22;631;51.024;13.826;2023-08-06T03:31:09;16.00;99.90
1277;DHT22;631;51.024;13.826;2023-08-06T03:33:34;16.00;99.90
1277;DHT22;631;51.024;13.826;2023-08-06T03:36:00;16.00;99.90
1277;DHT22;631;51.024;13.826;2023-08-06T03:38:25;16.00;99.90
1277;DHT22;631;51.024;13.826;2023-08-06T03:40:51;16.00;99.90
1277;DHT22;631;51.024;13.826;2023-08-06T03:43:17;16.00;99.90
1277;DHT22;631;51.024;13.826;2023-08-06T03:45:43;16.00;99.90
1277;DHT22;631;51.024;13.826;2023-08-06T03:48:09;16.00;99.90
1277;DHT22;631;51.024;13.826;2023-08-06T03:50:34;15.90;99.90
1277;DHT22;631;51.024;13.826;2023-08-06T03:53:00;15.90;99.90
1277;DHT22;631;51.024;13.826;2023-08-06T03:55:26;15.90;99.90
1277;DHT22;631;51.024;13.826;2023-08-06T03:57:51;15.90;99.90
1277;DHT22;631;51.024;13.826;2023-08-06T04:00:17;15.90;99.90
1277;DHT22;631;51.024;13.826;2023-08-06T04:02:43;15.90;99.90
1277;DHT22;631;51.024;13.826;2023-08-06T04:05:09;15.90;99.90
1277;DHT22;631;51.024;13.826;2023-08-06T04:07:35;15.90;99.90
1277;DHT22;631;51.024;13.826;2023-08-06T04:10:02;15.90;99.90
1277;DHT22;631;51.024;13.826;2023-08-06T04:12:28;15.90;99.90
1277;DHT22;631;51.024;13.826;2023-08-06T04:14:55;15.90;99.90
1277;DHT22;631;51.024;13.826;2023-08-06T04:17:21;15.90;99.90
1277;DHT22;631;51.024;13.826;2023-08-06T04:19:49;15.90;99.90
1277;DHT22;631;51.024;13.826;2023-08-06T04:22:15;16.00;99.90
1277;DHT22;631;51.024;13.826;2023-08-06T04:24:42;16.00;99.90
1277;DHT22;631;51.024;13.826;2023-08-06T04:27:09;15.90;99.90
1277;DHT22;631;51.024;13.826;2023-08-06T04:29:35;16.00;99.90
1277;DHT22;631;51.024;13.826;2023-08-06T04:32:00;15.90;99.90
1277;DHT22;631;51.024;13.826;2023-08-06T04:34:26;16.00;99.90
1277;DHT22;631;51.024;13.826;2023-08-06T04:36:51;16.00;99.90
1277;DHT22;631;51.024;13.826;2023-08-06T04:39:17;16.00;99.90
1277;DHT22;631;51.024;13.826;2023-08-06T04:41:43;16.00;99.90
1277;DHT22;631;51.024;13.826;2023-08-06T04:44:08;16.00;99.90
1277;DHT22;631;51.024;13.826;2023-08-06T04:46:34;16.00;99.90
1277;DHT22;631;51.024;13.826;2023-08-06T04:49:00;16.00;99.90
1277;DHT22;631;51.024;13.826;2023-08-06T04:51:25;16.00;99.90
1277;DHT22;631;51.024;13.826;2023-08-06T04:53:51;16.00;99.90
1277;DHT22;631;51.024;13.826;2023-08-06T04:56:16;16.00;99.90
1277;DHT22;631;51.024;13.826;2023-08-06T04:58:42;16.00;99.90
1277;DHT22;631;51.024;13.826;2023-08-06T05:01:07;16.10;99.90
1277;DHT22;631;51.024;13.826;2023-08-06T05:03:33;16.00;99.90
1277;DHT22;631;51.024;13.826;2023-08-06T05:05:59;16.00;99.90
1277;DHT22;631;51.024;13.826;2023-08-06T05:08:24;16.00;99.90
1277;DHT22;631;51.024;13.826;2023-08-06T05:10:50;16.10;99.90
1277;DHT22;631;51.024;13.826;2023-08-06T05:13:15;16.00;99.90
1277;DHT22;631;51.024;13.826;2023-08-06T05:15:42;16.10;99.90
1277;DHT22;631;51.024;13.826;2023-08-06T05:18:08;16.00;99.90
1277;DHT22;631;51.024;13.826;2023-08-06T05:20:38;16.00;99.90
1277;DHT22;631;51.024;13.826;2023-08-06T05:23:03;16.00;99.90
1277;DHT22;631;51.024;13.826;2023-08-06T05:25:29;16.00;99.90
1277;DHT22;631;51.024;13.826;2023-08-06T05:27:55;16.10;99.90
1277;DHT22;631;51.024;13.826;2023-08-06T05:30:21;16.10;99.90
1277;DHT22;631;51.024;13.826;2023-08-06T05:32:46;16.20;99.90
1277;DHT22;631;51.024;13.826;2023-08-06T05:35:12;16.20;99.90
1277;DHT22;631;51.024;13.826;2023-08-06T05:37:38;16.20;99.90
1277;DHT22;631;51.024;13.826;2023-08-06T05:40:04;16.30;99.90
1277;DHT22;631;51.024;13.826;2023-08-06T05:42:29;16.30;99.90
1277;DHT22;631;51.024;13.826;2023-08-06T05:44:55;16.30;99.90
1277;DHT22;631;51.024;13.826;2023-08-06T05:47:21;16.40;99.90
1277;DHT22;631;51.024;13.826;2023-08-06T05:49:47;16.30;99.90
1277;DHT22;631;51.024;13.826;2023-08-06T05:52:12;16.40;99.90
1277;DHT22;631;51.024;13.826;2023-08-06T05:54:38;16.40;99.90
1277;DHT22;631;51.024;13.826;2023-08-06T05:57:04;16.40;99.90
1277;DHT22;631;51.024;13.826;2023-08-06T05:59:30;16.40;99.90
1277;DHT22;631;51.024;13.826;2023-08-06T06:01:55;16.40;99.90
1277;DHT22;631;51.024;13.826;2023-08-06T06:04:21;16.40;99.90
1277;DHT22;631;51.024;13.826;2023-08-06T06:06:47;16.40;99.90
1277;DHT22;631;51.024;13.826;2023-08-06T06:09:12;16.40;99.90
1277;DHT22;631;51.024;13.826;2023-08-06T06:11:38;16.40;99.90
1277;DHT22;631;51.024;13.826;2023-08-06T06:14:03;16.40;99.90
1277;DHT22;631;51.024;13.826;2023-08-06T06:16:29;16.50;99.90
1277;DHT22;631;51.024;13.826;2023-08-06T06:18:54;16.50;99.90
1277;DHT22;631;51.024;13.826;2023-08-06T06:21:21;16.50;99.90
1277;DHT22;631;51.024;13.826;2023-08-06T06:23:46;16.60;99.90
1277;DHT22;631;51.024;13.826;2023-08-06T06:26:12;16.60;99.90
1277;DHT22;631;51.024;13.826;2023-08-06T06:28:38;16.70;99.90
1277;DHT22;631;51.024;13.826;2023-08-06T06:31:04;16.70;99.90
1277;DHT22;631;51.024;13.826;2023-08-06T06:33:30;16.80;99.90
1277;DHT22;631;51.024;13.826;2023-08-06T06:35:55;16.80;99.90
1277;DHT22;631;51.024;13.826;2023-08-06T06:38:21;16.90;99.90
1277;DHT22;631;51.024;13.826;2023-08-06T06:40:56;16.90;99.90
1277;DHT22;631;51.024;13.826;2023-08-06T06:43:22;16.90;99.90
1277;DHT22;631;51.024;13.826;2023-08-06T06:45:56;17.00;99.90
1277;DHT22;631;51.024;13.826;2023-08-06T06:48:22;17.00;99.90
1277;DHT22;631;51.024;13.826;2023-08-06T06:50:48;17.00;99.90
1277;DHT22;631;51.024;13.826;2023-08-06T06:53:14;17.10;99.90
1277;DHT22;631;51.024;13.826;2023-08-06T06:55:40;17.20;99.90
1277;DHT22;631;51.024;13.826;2023-08-06T06:58:05;17.30;99.90
1277;DHT22;631;51.024;13.826;2023-08-06T07:00:31;17.30;99.90
1277;DHT22;631;51.024;13.826;2023-08-06T07:02:56;17.30;99.90
1277;DHT22;631;51.024;13.826;2023-08-06T07:05:22;17.30;99.90
1277;DHT22;631;51.024;13.826;2023-08-06T07:07:48;17.30;99.90
1277;DHT22;631;51.024;13.826;2023-08-06T07:10:13;17.40;99.90
1277;DHT22;631;51.024;13.826;2023-08-06T07:12:39;17.40;99.90
1277;DHT22;631;51.024;13.826;2023-08-06T07:15:06;17.40;99.90
1277;DHT22;631;51.024;13.826;2023-08-06T07:17:32;17.50;99.90
1277;DHT22;631;51.024;13.826;2023-08-06T07:19:58;17.50;99.90
1277;DHT22;631;51.024;13.826;2023-08-06T07:22:23;17.60;99.90
1277;DHT22;631;51.024;13.826;2023-08-06T07:24:49;17.50;99.90
1277;DHT22;631;51.024;13.826;2023-08-06T07:27:15;17.60;99.90
1277;DHT22;631;51.024;13.826;2023-08-06T07:29:40;17.70;99.90
1277;DHT22;631;51.024;13.826;2023-08-06T07:32:07;17.80;99.90
1277;DHT22;631;51.024;13.826;2023-08-06T07:34:32;17.80;99.90
1277;DHT22;631;51.024;13.826;2023-08-06T07:36:58;17.90;99.90
1277;DHT22;631;51.024;13.826;2023-08-06T07:39:24;18.00;99.90
1277;DHT22;631;51.024;13.826;2023-08-06T07:41:50;18.00;99.90
1277;DHT22;631;51.024;13.826;2023-08-06T07:44:15;18.00;99.90
1277;DHT22;631;51.024;13.826;2023-08-06T07:46:41;18.00;99.90
1277;DHT22;631;51.024;13.826;2023-08-06T07:49:07;18.00;99.90
1277;DHT22;631;51.024;13.826;2023-08-06T07:51:32;17.90;99.90
1277;DHT22;631;51.024;13.826;2023-08-06T07:53:58;17.90;99.90
1277;DHT22;631;51.024;13.826;2023-08-06T07:56:23;17.90;99.90
1277;DHT22;631;51.024;13.826;2023-08-06T07:58:49;17.90;99.90
1277;DHT22;631;51.024;13.826;2023-08-06T08:01:15;17.90;99.90
1277;DHT22;631;51.024;13.826;2023-08-06T08:03:40;17.80;99.90
1277;DHT22;631;51.024;13.826;2023-08-06T08:06:06;17.70;99.90
1277;DHT22;631;51.024;13.826;2023-08-06T08:08:31;17.70;99.90
1277;DHT22;631;51.024;13.826;2023-08-06T08:10:57;17.50;99.90
1277;DHT22;631;51.024;13.826;2023-08-06T08:13:24;17.40;99.90
1277;DHT22;631;51.024;13.826;2023-08-06T08:15:50;17.40;99.90
1277;DHT22;631;51.024;13.826;2023-08-06T08:18:15;17.40;99.90
1277;DHT22;631;51.024;13.826;2023-08-06T08:20:41;17.40;99.90
1277;DHT22;631;51.024;13.826;2023-08-06T08:23:07;17.30;99.90
1277;DHT22;631;51.024;13.826;2023-08-06T08:25:32;17.20;99.90
1277;DHT22;631;51.024;13.826;2023-08-06T08:27:59;17.20;99.90
1277;DHT22;631;51.024;13.826;2023-08-06T08:30:25;17.20;99.90
1277;DHT22;631;51.024;13.826;2023-08-06T08:32:50;17.20;99.90
1277;DHT22;631;51.024;13.826;2023-08-06T08:35:16;17.10;99.90
1277;DHT22;631;51.024;13.826;2023-08-06T08:37:43;17.10;99.90
1277;DHT22;631;51.024;13.826;2023-08-06T08:40:09;17.00;99.90
1277;DHT22;631;51.024;13.826;2023-08-06T08:42:36;17.10;99.90
1277;DHT22;631;51.024;13.826;2023-08-06T08:45:06;17.20;99.90
1277;DHT22;631;51.024;13.826;2023-08-06T08:47:36;17.30;99.90
1277;DHT22;631;51.024;13.826;2023-08-06T08:50:02;17.40;99.90
1277;DHT22;631;51.024;13.826;2023-08-06T08:52:31;17.40;99.90
1277;DHT22;631;51.024;13.826;2023-08-06T08:54:58;17.30;99.90
1277;DHT22;631;51.024;13.826;2023-08-06T08:57:24;17.10;99.90
1277;DHT22;631;51.024;13.826;2023-08-06T08:59:50;17.10;99.90
1277;DHT22;631;51.024;13.826;2023-08-06T09:02:16;16.80;99.90
1277;DHT22;631;51.024;13.826;2023-08-06T09:04:43;16.80;99.90
1277;DHT22;631;51.024;13.826;2023-08-06T09:07:13;16.90;99.90
1277;DHT22;631;51.024;13.826;2023-08-06T09:09:43;16.90;99.90
1277;DHT22;631;51.024;13.826;2023-08-06T09:12:16;17.10;99.90
1277;DHT22;631;51.024;13.826;2023-08-06T09:14:42;17.10;99.90
1277;DHT22;631;51.024;13.826;2023-08-06T09:17:08;17.20;99.90
1277;DHT22;631;51.024;13.826;2023-08-06T09:19:36;17.40;99.90
1277;DHT22;631;51.024;13.826;2023-08-06T09:22:02;17.60;99.90
1277;DHT22;631;51.024;13.826;2023-08-06T09:24:28;17.70;99.90
1277;DHT22;631;51.024;13.826;2023-08-06T09:26:53;17.80;99.90
1277;DHT22;631;51.024;13.826;2023-08-06T09:29:20;17.90;99.90
1277;DHT22;631;51.024;13.826;2023-08-06T09:31:50;17.90;99.90
1277;DHT22;631;51.024;13.826;2023-08-06T09:34:20;17.80;99.90
1277;DHT22;631;51.024;13.826;2023-08-06T09:36:51;17.80;99.90
1277;DHT22;631;51.024;13.826;2023-08-06T09:39:26;17.80;99.90
1277;DHT22;631;51.024;13.826;2023-08-06T09:41:58;17.70;99.90
1277;DHT22;631;51.024;13.826;2023-08-06T09:44:26;17.80;99.90
1277;DHT22;631;51.024;13.826;2023-08-06T09:46:53;17.80;99.90
1277;DHT22;631;51.024;13.826;2023-08-06T09:49:20;17.70;99.90
1277;DHT22;631;51.024;13.826;2023-08-06T09:51:49;17.70;99.90
1277;DHT22;631;51.024;13.826;2023-08-06T09:54:17;17.70;99.90
1277;DHT22;631;51.024;13.826;2023-08-06T09:56:44;17.80;99.90
1277;DHT22;631;51.024;13.826;2023-08-06T09:59:10;17.80;99.90
1277;DHT22;631;51.024;13.826;2023-08-06T10:01:36;17.80;99.90
1277;DHT22;631;51.024;13.826;2023-08-06T10:04:06;17.80;99.90
1277;DHT22;631;51.024;13.826;2023-08-06T10:06:37;17.90;99.90
1277;DHT22;631;51.024;13.826;2023-08-06T10:09:03;17.90;99.90
1277;DHT22;631;51.024;13.826;2023-08-06T10:11:29;18.00;99.90
1277;DHT22;631;51.024;13.826;2023-08-06T10:14:11;18.10;99.90
1277;DHT22;631;51.024;13.826;2023-08-06T10:16:39;18.20;99.90
1277;DHT22;631;51.024;13.826;2023-08-06T10:19:05;18.30;99.90
1277;DHT22;631;51.024;13.826;2023-08-06T10:21:32;18.40;99.90
1277;DHT22;631;51.024;13.826;2023-08-06T10:23:58;18.50;99.90
1277;DHT22;631;51.024;13.826;2023-08-06T10:26:27;18.70;99.90
1277;DHT22;631;51.024;13.826;2023-08-06T10:28:53;18.70;99.90
1277;DHT22;631;51.024;13.826;2023-08-06T10:31:19;18.80;99.90
1277;DHT22;631;51.024;13.826;2023-08-06T10:33:46;18.80;99.90
1277;DHT22;631;51.024;13.826;2023-08-06T10:36:13;19.00;99.90
1277;DHT22;631;51.024;13.826;2023-08-06T10:38:49;19.10;99.90
1277;DHT22;631;51.024;13.826;2023-08-06T10:41:22;19.20;99.90
1277;DHT22;631;51.024;13.826;2023-08-06T10:43:48;19.50;99.90
1277;DHT22;631;51.024;13.826;2023-08-06T10:46:28;19.70;99.90
1277;DHT22;631;51.024;13.826;2023-08-06T10:48:54;19.70;99.90
1277;DHT22;631;51.024;13.826;2023-08-06T10:51:19;20.00;99.90
1277;DHT22;631;51.024;13.826;2023-08-06T10:53:48;20.20;99.90
1277;DHT22;631;51.024;13.826;2023-08-06T10:56:15;20.30;99.90
1277;DHT22;631;51.024;13.826;2023-08-06T10:58:42;20.50;99.90
1277;DHT22;631;51.024;13.826;2023-08-06T11:01:08;20.50;99.90
1277;DHT22;631;51.024;13.826;2023-08-06T11:03:33;20.50;99.90
1277;DHT22;631;51.024;13.826;2023-08-06T11:05:59;20.50;99.90
1277;DHT22;631;51.024;13.826;2023-08-06T11:08:26;20.60;99.90
1277;DHT22;631;51.024;13.826;2023-08-06T11:10:51;20.50;99.90
1277;DHT22;631;51.024;13.826;2023-08-06T11:13:17;20.50;99.90
1277;DHT22;631;51.024;13.826;2023-08-06T11:15:45;20.30;99.90
1277;DHT22;631;51.024;13.826;2023-08-06T11:18:10;20.30;99.90
1277;DHT22;631;51.024;13.826;2023-08-06T11:20:36;20.20;99.90
1277;DHT22;631;51.024;13.826;2023-08-06T11:23:02;20.30;99.90
1277;DHT22;631;51.024;13.826;2023-08-06T11:25:28;20.30;99.90
1277;DHT22;631;51.024;13.826;2023-08-06T11:27:54;20.20;99.90
1277;DHT22;631;51.024;13.826;2023-08-06T11:30:20;20.20;99.90
1277;DHT22;631;51.024;13.826;2023-08-06T11:32:46;20.30;99.90
1277;DHT22;631;51.024;13.826;2023-08-06T11:35:13;20.30;99.90
1277;DHT22;631;51.024;13.826;2023-08-06T11:37:43;20.50;99.90
1277;DHT22;631;51.024;13.826;2023-08-06T11:40:09;20.60;99.90
1277;DHT22;631;51.024;13.826;2023-08-06T11:42:36;20.60;99.90
1277;DHT22;631;51.024;13.826;2023-08-06T11:45:03;20.70;99.90
1277;DHT22;631;51.024;13.826;2023-08-06T11:47:30;20.70;99.90
1277;DHT22;631;51.024;13.826;2023-08-06T11:49:56;20.80;99.90
1277;DHT22;631;51.024;13.826;2023-08-06T11:52:25;20.70;99.90
1277;DHT22;631;51.024;13.826;2023-08-06T11:55:04;20.90;99.90
1277;DHT22;631;51.024;13.826;2023-08-06T11:57:39;20.90;99.90
1277;DHT22;631;51.024;13.826;2023-08-06T12:00:09;20.90;99.90
1277;DHT22;631;51.024;13.826;2023-08-06T12:02:38;21.00;99.90
1277;DHT22;631;51.024;13.826;2023-08-06T12:05:11;20.90;99.90
1277;DHT22;631;51.024;13.826;2023-08-06T12:07:38;21.00;99.90
1277;DHT22;631;51.024;13.826;2023-08-06T12:10:05;21.00;99.90
1277;DHT22;631;51.024;13.826;2023-08-06T12:12:31;21.00;99.90
1277;DHT22;631;51.024;13.826;2023-08-06T12:14:56;21.00;99.90
1277;DHT22;631;51.024;13.826;2023-08-06T12:17:23;21.00;99.90
1277;DHT22;631;51.024;13.826;2023-08-06T12:19:49;21.00;99.90
1277;DHT22;631;51.024;13.826;2023-08-06T12:22:16;21.00;99.90
1277;DHT22;631;51.024;13.826;2023-08-06T12:24:46;21.10;99.90
1277;DHT22;631;51.024;13.826;2023-08-06T12:27:12;21.20;99.90
1277;DHT22;631;51.024;13.826;2023-08-06T12:29:47;21.30;99.90
1277;DHT22;631;51.024;13.826;2023-08-06T12:32:13;21.10;99.90
1277;DHT22;631;51.024;13.826;2023-08-06T12:34:40;21.00;99.90
1277;DHT22;631;51.024;13.826;2023-08-06T12:37:06;20.90;99.90
1277;DHT22;631;51.024;13.826;2023-08-06T12:39:35;20.80;99.90
1277;DHT22;631;51.024;13.826;2023-08-06T12:42:02;21.00;99.90
1277;DHT22;631;51.024;13.826;2023-08-06T12:44:28;21.10;99.90
1277;DHT22;631;51.024;13.826;2023-08-06T12:46:54;21.00;99.90
1277;DHT22;631;51.024;13.826;2023-08-06T12:49:20;21.00;99.90
1277;DHT22;631;51.024;13.826;2023-08-06T12:51:50;21.20;99.90
1277;DHT22;631;51.024;13.826;2023-08-06T12:54:20;21.30;99.90
1277;DHT22;631;51.024;13.826;2023-08-06T12:56:47;21.40;99.90
1277;DHT22;631;51.024;13.826;2023-08-06T12:59:16;21.40;99.90
1277;DHT22;631;51.024;13.826;2023-08-06T13:01:42;21.50;99.90
1277;DHT22;631;51.024;13.826;2023-08-06T13:04:08;21.60;99.90
1277;DHT22;631;51.024;13.826;2023-08-06T13:06:34;21.70;99.90
1277;DHT22;631;51.024;13.826;2023-08-06T13:09:06;21.60;99.90
1277;DHT22;631;51.024;13.826;2023-08-06T13:11:36;21.40;99.90
1277;DHT22;631;51.024;13.826;2023-08-06T13:14:11;21.40;99.90
1277;DHT22;631;51.024;13.826;2023-08-06T13:16:38;21.40;99.90
1277;DHT22;631;51.024;13.826;2023-08-06T13:19:05;21.40;99.90
1277;DHT22;631;51.024;13.826;2023-08-06T13:24:07;21.40;99.90
1277;DHT22;631;51.024;13.826;2023-08-06T13:26:32;21.60;99.90
1277;DHT22;631;51.024;13.826;2023-08-06T13:28:59;21.80;99.90
1277;DHT22;631;51.024;13.826;2023-08-06T13:31:26;21.90;99.90
1277;DHT22;631;51.024;13.826;2023-08-06T13:33:52;22.00;99.90
1277;DHT22;631;51.024;13.826;2023-08-06T13:36:19;22.10;99.90
1277;DHT22;631;51.024;13.826;2023-08-06T13:38:45;22.20;99.90
1277;DHT22;631;51.024;13.826;2023-08-06T13:41:10;22.40;99.90
1277;DHT22;631;51.024;13.826;2023-08-06T13:43:36;22.40;99.90
1277;DHT22;631;51.024;13.826;2023-08-06T13:46:02;22.50;99.90
1277;DHT22;631;51.024;13.826;2023-08-06T13:48:27;22.60;99.90
1277;DHT22;631;51.024;13.826;2023-08-06T13:50:53;22.60;99.90
1277;DHT22;631;51.024;13.826;2023-08-06T13:53:18;22.70;99.90
1277;DHT22;631;51.024;13.826;2023-08-06T13:55:44;22.70;99.90
1277;DHT22;631;51.024;13.826;2023-08-06T13:58:10;22.60;99.90
1277;DHT22;631;51.024;13.826;2023-08-06T14:00:36;22.70;99.90
1277;DHT22;631;51.024;13.826;2023-08-06T14:03:02;22.70;99.90
1277;DHT22;631;51.024;13.826;2023-08-06T14:05:27;22.70;99.90
1277;DHT22;631;51.024;13.826;2023-08-06T14:07:53;22.70;99.90
1277;DHT22;631;51.024;13.826;2023-08-06T14:10:19;22.70;99.90
1277;DHT22;631;51.024;13.826;2023-08-06T14:12:44;22.70;99.90
1277;DHT22;631;51.024;13.826;2023-08-06T14:15:11;22.70;99.90
1277;DHT22;631;51.024;13.826;2023-08-06T14:17:37;22.70;99.90
1277;DHT22;631;51.024;13.826;2023-08-06T14:20:03;22.70;99.90
1277;DHT22;631;51.024;13.826;2023-08-06T14:22:30;22.70;99.90
1277;DHT22;631;51.024;13.826;2023-08-06T14:24:57;22.70;99.90
1277;DHT22;631;51.024;13.826;2023-08-06T14:27:23;22.60;99.90
1277;DHT22;631;51.024;13.826;2023-08-06T14:29:48;22.70;99.90
1277;DHT22;631;51.024;13.826;2023-08-06T14:32:14;22.60;99.90
1277;DHT22;631;51.024;13.826;2023-08-06T14:34:43;22.60;99.90
1277;DHT22;631;51.024;13.826;2023-08-06T14:37:09;22.50;99.90
1277;DHT22;631;51.024;13.826;2023-08-06T14:39:36;22.50;99.90
1277;DHT22;631;51.024;13.826;2023-08-06T14:42:04;22.40;99.90
1277;DHT22;631;51.024;13.826;2023-08-06T14:44:30;22.40;99.90
1277;DHT22;631;51.024;13.826;2023-08-06T14:46:56;22.40;99.90
1277;DHT22;631;51.024;13.826;2023-08-06T14:49:22;22.20;99.90
1277;DHT22;631;51.024;13.826;2023-08-06T14:51:47;22.20;99.90
1277;DHT22;631;51.024;13.826;2023-08-06T14:54:13;22.00;99.90
1277;DHT22;631;51.024;13.826;2023-08-06T14:56:38;22.00;99.90
1277;DHT22;631;51.024;13.826;2023-08-06T14:59:04;21.90;99.90
1277;DHT22;631;51.024;13.826;2023-08-06T15:01:30;21.80;99.90
1277;DHT22;631;51.024;13.826;2023-08-06T15:03:55;21.80;99.90
1277;DHT22;631;51.024;13.826;2023-08-06T15:06:21;21.70;99.90
1277;DHT22;631;51.024;13.826;2023-08-06T15:08:46;21.70;99.90
1277;DHT22;631;51.024;13.826;2023-08-06T15:11:13;21.70;99.90
1277;DHT22;631;51.024;13.826;2023-08-06T15:13:39;21.60;99.90
1277;DHT22;631;51.024;13.826;2023-08-06T15:16:05;21.60;99.90
1277;DHT22;631;51.024;13.826;2023-08-06T15:18:30;21.70;99.90
1277;DHT22;631;51.024;13.826;2023-08-06T15:20:56;21.80;99.90
1277;DHT22;631;51.024;13.826;2023-08-06T15:23:23;21.90;99.90
1277;DHT22;631;51.024;13.826;2023-08-06T15:25:49;22.00;99.90
1277;DHT22;631;51.024;13.826;2023-08-06T15:28:15;22.00;99.90
1277;DHT22;631;51.024;13.826;2023-08-06T15:30:40;22.10;99.90
1277;DHT22;631;51.024;13.826;2023-08-06T15:33:12;22.20;99.90
1277;DHT22;631;51.024;13.826;2023-08-06T15:35:38;22.20;99.90
1277;DHT22;631;51.024;13.826;2023-08-06T15:38:04;22.20;99.90
1277;DHT22;631;51.024;13.826;2023-08-06T15:40:29;22.10;99.90
1277;DHT22;631;51.024;13.826;2023-08-06T15:42:55;22.10;99.90
1277;DHT22;631;51.024;13.826;2023-08-06T15:45:20;22.10;99.90
1277;DHT22;631;51.024;13.826;2023-08-06T15:47:46;22.10;99.90
1277;DHT22;631;51.024;13.826;2023-08-06T15:50:12;21.90;99.90
1277;DHT22;631;51.024;13.826;2023-08-06T15:52:37;21.80;99.90
1277;DHT22;631;51.024;13.826;2023-08-06T15:55:03;21.70;99.90
1277;DHT22;631;51.024;13.826;2023-08-06T15:57:34;21.50;99.90
1277;DHT22;631;51.024;13.826;2023-08-06T16:00:00;21.40;99.90
1277;DHT22;631;51.024;13.826;2023-08-06T16:02:26;21.20;99.90